sensor_id;sensor_type;location;lat;lon;timestamp;P1;durP1;ratioP1;P2;durP2;ratioP2
84723;SDS011;74944;52.322;16.918;2024-01-11T00:01:10;73.00;;;30.20;;
84723;SDS011;74944;52.322;16.918;2024-01-11T00:03:39;71.80;;;27.08;;
84723;SDS011;74944;52.322;16.918;2024-01-11T00:06:05;68.65;;;28.42;;
84723;SDS011;74944;52.322;16.918;2024-01-11T00:08:31;65.53;;;27.75;;
84723;SDS011;74944;52.322;16.918;2024-01-11T00:10:57;57.70;;;22.80;;
84723;SDS011;74944;52.322;16.918;2024-01-11T00:13:22;67.53;;;27.27;;
84723;SDS011;74944;52.322;16.918;2024-01-11T00:15:48;75.88;;;30.52;;
84723;SDS011;74944;52.322;16.918;2024-01-11T00:18:14;76.70;;;30.65;;
84723;SDS011;74944;52.322;16.918;2024-01-11T00:20:40;70.85;;;31.25;;
84723;SDS011;74944;52.322;16.918;2024-01-11T00:23:05;76.30;;;31.08;;
84723;SDS011;74944;52.322;16.918;2024-01-11T00:25:32;73.72;;;28.65;;
84723;SDS011;74944;52.322;16.918;2024-01-11T00:27:57;69.40;;;27.85;;
84723;SDS011;74944;52.322;16.918;2024-01-11T00:30:24;63.47;;;24.95;;
84723;SDS011;74944;52.322;16.918;2024-01-11T00:32:50;58.05;;;22.25;;
84723;SDS011;74944;52.322;16.918;2024-01-11T00:35:16;59.75;;;23.02;;
84723;SDS011;74944;52.322;16.918;2024-01-11T00:37:42;64.75;;;24.45;;
84723;SDS011;74944;52.322;16.918;2024-01-11T00:40:08;53.90;;;20.02;;
84723;SDS011;74944;52.322;16.918;2024-01-11T00:42:34;39.97;;;16.90;;
84723;SDS011;74944;52.322;16.918;2024-01-11T00:47:25;37.80;;;14.82;;
84723;SDS011;74944;52.322;16.918;2024-01-11T00:49:51;45.70;;;16.15;;
84723;SDS011;74944;52.322;16.918;2024-01-11T00:52:17;52.92;;;19.30;;
84723;SDS011;74944;52.322;16.918;2024-01-11T00:54:43;38.28;;;13.27;;
84723;SDS011;74944;52.322;16.918;2024-01-11T00:57:08;39.13;;;15.05;;
84723;SDS011;74944;52.322;16.918;2024-01-11T00:59:34;34.88;;;12.57;;
84723;SDS011;74944;52.322;16.918;2024-01-11T01:02:00;34.83;;;13.93;;
84723;SDS011;74944;52.322;16.918;2024-01-11T01:04:26;33.25;;;11.90;;
84723;SDS011;74944;52.322;16.918;2024-01-11T01:06:51;38.17;;;14.18;;
84723;SDS011;74944;52.322;16.918;2024-01-11T01:09:21;33.50;;;14.07;;
84723;SDS011;74944;52.322;16.918;2024-01-11T01:11:46;36.45;;;14.15;;
84723;SDS011;74944;52.322;16.918;2024-01-11T01:14:12;44.53;;;14.30;;
84723;SDS011;74944;52.322;16.918;2024-01-11T01:16:37;35.90;;;15.65;;
84723;SDS011;74944;52.322;16.918;2024-01-11T01:19:03;32.22;;;13.52;;
84723;SDS011;74944;52.322;16.918;2024-01-11T01:21:29;39.60;;;14.73;;
84723;SDS011;74944;52.322;16.918;2024-01-11T01:23:55;37.50;;;14.57;;
84723;SDS011;74944;52.322;16.918;2024-01-11T01:26:20;35.38;;;14.45;;
84723;SDS011;74944;52.322;16.918;2024-01-11T01:28:46;39.88;;;15.65;;
84723;SDS011;74944;52.322;16.918;2024-01-11T01:31:12;40.92;;;16.85;;
84723;SDS011;74944;52.322;16.918;2024-01-11T01:33:39;43.45;;;16.67;;
84723;SDS011;74944;52.322;16.918;2024-01-11T01:36:07;43.15;;;16.73;;
84723;SDS011;74944;52.322;16.918;2024-01-11T01:38:35;53.35;;;20.77;;
84723;SDS011;74944;52.322;16.918;2024-01-11T01:41:01;54.70;;;21.58;;
84723;SDS011;74944;52.322;16.918;2024-01-11T01:43:26;57.72;;;23.80;;
84723;SDS011;74944;52.322;16.918;2024-01-11T01:45:52;57.80;;;20.27;;
84723;SDS011;74944;52.322;16.918;2024-01-11T01:48:18;71.10;;;25.45;;
84723;SDS011;74944;52.322;16.918;2024-01-11T01:53:22;60.45;;;22.98;;
84723;SDS011;74944;52.322;16.918;2024-01-11T01:55:49;65.53;;;25.33;;
84723;SDS011;74944;52.322;16.918;2024-01-11T01:58:18;78.05;;;32.97;;
84723;SDS011;74944;52.322;16.918;2024-01-11T02:00:45;72.50;;;27.90;;
84723;SDS011;74944;52.322;16.918;2024-01-11T02:03:12;87.07;;;33.95;;
84723;SDS011;74944;52.322;16.918;2024-01-11T02:05:42;90.53;;;37.13;;
84723;SDS011;74944;52.322;16.918;2024-01-11T02:08:08;83.35;;;35.72;;
84723;SDS011;74944;52.322;16.918;2024-01-11T02:10:37;79.63;;;33.67;;
84723;SDS011;74944;52.322;16.918;2024-01-11T02:13:04;85.35;;;34.08;;
84723;SDS011;74944;52.322;16.918;2024-01-11T02:15:30;97.88;;;38.03;;
84723;SDS011;74944;52.322;16.918;2024-01-11T02:17:56;90.53;;;36.30;;
84723;SDS011;74944;52.322;16.918;2024-01-11T02:20:21;80.35;;;33.50;;
84723;SDS011;74944;52.322;16.918;2024-01-11T02:22:49;73.78;;;28.00;;
84723;SDS011;74944;52.322;16.918;2024-01-11T02:25:21;101.00;;;48.65;;
84723;SDS011;74944;52.322;16.918;2024-01-11T02:27:48;80.95;;;34.85;;
84723;SDS011;74944;52.322;16.918;2024-01-11T02:30:15;80.95;;;36.53;;
84723;SDS011;74944;52.322;16.918;2024-01-11T02:32:43;87.10;;;33.45;;
84723;SDS011;74944;52.322;16.918;2024-01-11T02:35:12;45.50;;;19.75;;
84723;SDS011;74944;52.322;16.918;2024-01-11T02:37:38;101.63;;;39.08;;
84723;SDS011;74944;52.322;16.918;2024-01-11T02:40:06;92.68;;;39.55;;
84723;SDS011;74944;52.322;16.918;2024-01-11T02:42:33;103.25;;;44.55;;
84723;SDS011;74944;52.322;16.918;2024-01-11T02:44:59;86.03;;;33.47;;
84723;SDS011;74944;52.322;16.918;2024-01-11T02:47:25;77.20;;;27.38;;
84723;SDS011;74944;52.322;16.918;2024-01-11T02:49:51;72.63;;;28.38;;
84723;SDS011;74944;52.322;16.918;2024-01-11T02:52:17;66.13;;;24.15;;
84723;SDS011;74944;52.322;16.918;2024-01-11T02:54:42;69.03;;;24.42;;
84723;SDS011;74944;52.322;16.918;2024-01-11T02:57:08;62.17;;;22.80;;
84723;SDS011;74944;52.322;16.918;2024-01-11T02:59:33;51.17;;;20.60;;
84723;SDS011;74944;52.322;16.918;2024-01-11T03:02:00;55.80;;;19.60;;
84723;SDS011;74944;52.322;16.918;2024-01-11T03:04:26;51.47;;;19.65;;
84723;SDS011;74944;52.322;16.918;2024-01-11T03:06:52;50.53;;;18.38;;
84723;SDS011;74944;52.322;16.918;2024-01-11T03:09:18;50.60;;;20.17;;
84723;SDS011;74944;52.322;16.918;2024-01-11T03:11:43;58.25;;;20.17;;
84723;SDS011;74944;52.322;16.918;2024-01-11T03:14:09;56.83;;;19.15;;
84723;SDS011;74944;52.322;16.918;2024-01-11T03:16:35;57.58;;;20.13;;
84723;SDS011;74944;52.322;16.918;2024-01-11T03:19:00;43.88;;;15.48;;
84723;SDS011;74944;52.322;16.918;2024-01-11T03:21:26;50.33;;;17.58;;
84723;SDS011;74944;52.322;16.918;2024-01-11T03:23:52;46.58;;;15.73;;
84723;SDS011;74944;52.322;16.918;2024-01-11T03:26:18;52.83;;;16.55;;
84723;SDS011;74944;52.322;16.918;2024-01-11T03:28:44;55.33;;;18.38;;
84723;SDS011;74944;52.322;16.918;2024-01-11T03:31:10;49.80;;;15.90;;
84723;SDS011;74944;52.322;16.918;2024-01-11T03:33:36;51.20;;;18.38;;
84723;SDS011;74944;52.322;16.918;2024-01-11T03:36:08;44.70;;;14.43;;
84723;SDS011;74944;52.322;16.918;2024-01-11T03:38:35;39.75;;;12.98;;
84723;SDS011;74944;52.322;16.918;2024-01-11T03:43:27;34.58;;;11.05;;
84723;SDS011;74944;52.322;16.918;2024-01-11T03:45:53;51.20;;;14.35;;
84723;SDS011;74944;52.322;16.918;2024-01-11T03:48:19;53.47;;;17.20;;
84723;SDS011;74944;52.322;16.918;2024-01-11T03:50:44;55.47;;;16.75;;
84723;SDS011;74944;52.322;16.918;2024-01-11T03:53:10;55.28;;;17.50;;
84723;SDS011;74944;52.322;16.918;2024-01-11T03:58:02;50.80;;;16.02;;
84723;SDS011;74944;52.322;16.918;2024-01-11T04:00:28;65.43;;;18.30;;
84723;SDS011;74944;52.322;16.918;2024-01-11T04:02:53;40.67;;;12.55;;
84723;SDS011;74944;52.322;16.918;2024-01-11T04:05:19;64.70;;;16.55;;
84723;SDS011;74944;52.322;16.918;2024-01-11T04:07:44;48.15;;;12.70;;
84723;SDS011;74944;52.322;16.918;2024-01-11T04:10:10;46.55;;;11.45;;
84723;SDS011;74944;52.322;16.918;2024-01-11T04:12:37;49.15;;;12.50;;
84723;SDS011;74944;52.322;16.918;2024-01-11T04:15:03;37.13;;;11.35;;
84723;SDS011;74944;52.322;16.918;2024-01-11T04:17:29;44.17;;;12.98;;
84723;SDS011;74944;52.322;16.918;2024-01-11T04:19:55;79.35;;;21.13;;
84723;SDS011;74944;52.322;16.918;2024-01-11T04:22:20;44.05;;;13.02;;
84723;SDS011;74944;52.322;16.918;2024-01-11T04:24:46;41.97;;;11.93;;
84723;SDS011;74944;52.322;16.918;2024-01-11T04:27:12;58.83;;;15.10;;
84723;SDS011;74944;52.322;16.918;2024-01-11T04:29:37;99.53;;;22.33;;
84723;SDS011;74944;52.322;16.918;2024-01-11T04:32:03;52.97;;;14.23;;
84723;SDS011;74944;52.322;16.918;2024-01-11T04:34:29;76.90;;;18.35;;
84723;SDS011;74944;52.322;16.918;2024-01-11T04:36:55;82.28;;;19.30;;
84723;SDS011;74944;52.322;16.918;2024-01-11T04:39:21;71.03;;;16.73;;
84723;SDS011;74944;52.322;16.918;2024-01-11T04:41:47;43.55;;;11.50;;
84723;SDS011;74944;52.322;16.918;2024-01-11T04:44:13;49.70;;;12.18;;
84723;SDS011;74944;52.322;16.918;2024-01-11T04:46:39;49.15;;;13.35;;
84723;SDS011;74944;52.322;16.918;2024-01-11T04:49:05;49.17;;;13.30;;
84723;SDS011;74944;52.322;16.918;2024-01-11T04:51:31;65.82;;;14.00;;
84723;SDS011;74944;52.322;16.918;2024-01-11T04:53:57;42.47;;;12.35;;
84723;SDS011;74944;52.322;16.918;2024-01-11T04:56:22;44.88;;;13.73;;
84723;SDS011;74944;52.322;16.918;2024-01-11T04:58:48;62.45;;;16.63;;
84723;SDS011;74944;52.322;16.918;2024-01-11T05:01:14;33.63;;;10.98;;
84723;SDS011;74944;52.322;16.918;2024-01-11T05:03:41;51.65;;;13.32;;
84723;SDS011;74944;52.322;16.918;2024-01-11T05:06:20;48.22;;;13.27;;
84723;SDS011;74944;52.322;16.918;2024-01-11T05:08:51;60.95;;;17.30;;
84723;SDS011;74944;52.322;16.918;2024-01-11T05:11:21;51.45;;;14.02;;
84723;SDS011;74944;52.322;16.918;2024-01-11T05:13:50;52.80;;;15.20;;
84723;SDS011;74944;52.322;16.918;2024-01-11T05:16:23;49.08;;;13.77;;
84723;SDS011;74944;52.322;16.918;2024-01-11T05:18:54;37.65;;;10.85;;
84723;SDS011;74944;52.322;16.918;2024-01-11T05:23:49;50.55;;;14.15;;
84723;SDS011;74944;52.322;16.918;2024-01-11T05:26:16;32.47;;;11.20;;
84723;SDS011;74944;52.322;16.918;2024-01-11T05:28:42;34.92;;;12.18;;
84723;SDS011;74944;52.322;16.918;2024-01-11T05:31:12;76.28;;;19.27;;
84723;SDS011;74944;52.322;16.918;2024-01-11T05:33:39;58.38;;;16.90;;
84723;SDS011;74944;52.322;16.918;2024-01-11T05:36:04;68.18;;;18.67;;
84723;SDS011;74944;52.322;16.918;2024-01-11T05:38:31;44.90;;;15.05;;
84723;SDS011;74944;52.322;16.918;2024-01-11T05:40:57;70.45;;;20.48;;
84723;SDS011;74944;52.322;16.918;2024-01-11T05:43:23;58.08;;;17.27;;
84723;SDS011;74944;52.322;16.918;2024-01-11T05:45:49;75.18;;;20.58;;
84723;SDS011;74944;52.322;16.918;2024-01-11T05:48:15;69.85;;;17.00;;
84723;SDS011;74944;52.322;16.918;2024-01-11T05:53:07;61.20;;;15.52;;
84723;SDS011;74944;52.322;16.918;2024-01-11T05:55:33;52.35;;;13.80;;
84723;SDS011;74944;52.322;16.918;2024-01-11T06:00:25;54.83;;;15.70;;
84723;SDS011;74944;52.322;16.918;2024-01-11T06:02:52;43.22;;;12.98;;
84723;SDS011;74944;52.322;16.918;2024-01-11T06:05:17;44.70;;;14.68;;
84723;SDS011;74944;52.322;16.918;2024-01-11T06:07:43;54.53;;;16.95;;
84723;SDS011;74944;52.322;16.918;2024-01-11T06:10:09;58.40;;;15.48;;
84723;SDS011;74944;52.322;16.918;2024-01-11T06:12:35;59.20;;;17.27;;
84723;SDS011;74944;52.322;16.918;2024-01-11T06:15:01;51.55;;;12.48;;
84723;SDS011;74944;52.322;16.918;2024-01-11T06:17:28;48.45;;;15.45;;
84723;SDS011;74944;52.322;16.918;2024-01-11T06:19:53;36.15;;;11.38;;
84723;SDS011;74944;52.322;16.918;2024-01-11T06:22:20;45.92;;;13.55;;
84723;SDS011;74944;52.322;16.918;2024-01-11T06:24:46;46.25;;;14.32;;
84723;SDS011;74944;52.322;16.918;2024-01-11T06:27:11;40.03;;;12.23;;
84723;SDS011;74944;52.322;16.918;2024-01-11T06:29:37;43.50;;;14.50;;
84723;SDS011;74944;52.322;16.918;2024-01-11T06:32:03;39.95;;;12.40;;
84723;SDS011;74944;52.322;16.918;2024-01-11T06:34:29;47.45;;;15.40;;
84723;SDS011;74944;52.322;16.918;2024-01-11T06:36:55;49.03;;;15.35;;
84723;SDS011;74944;52.322;16.918;2024-01-11T06:39:21;46.58;;;13.50;;
84723;SDS011;74944;52.322;16.918;2024-01-11T06:41:47;38.47;;;10.93;;
84723;SDS011;74944;52.322;16.918;2024-01-11T06:44:12;40.05;;;11.63;;
84723;SDS011;74944;52.322;16.918;2024-01-11T06:46:38;30.77;;;9.52;;
84723;SDS011;74944;52.322;16.918;2024-01-11T06:49:09;36.92;;;10.82;;
84723;SDS011;74944;52.322;16.918;2024-01-11T06:51:35;35.13;;;10.95;;
84723;SDS011;74944;52.322;16.918;2024-01-11T06:54:01;44.03;;;14.40;;
84723;SDS011;74944;52.322;16.918;2024-01-11T06:56:27;47.47;;;13.50;;
84723;SDS011;74944;52.322;16.918;2024-01-11T06:58:54;52.75;;;15.95;;
84723;SDS011;74944;52.322;16.918;2024-01-11T07:01:20;42.63;;;13.77;;
84723;SDS011;74944;52.322;16.918;2024-01-11T07:03:46;43.65;;;15.90;;
84723;SDS011;74944;52.322;16.918;2024-01-11T07:06:12;46.85;;;15.98;;
84723;SDS011;74944;52.322;16.918;2024-01-11T07:08:38;42.05;;;11.77;;
84723;SDS011;74944;52.322;16.918;2024-01-11T07:11:03;51.10;;;15.70;;
84723;SDS011;74944;52.322;16.918;2024-01-11T07:13:29;39.53;;;12.38;;
84723;SDS011;74944;52.322;16.918;2024-01-11T07:15:57;53.15;;;15.88;;
84723;SDS011;74944;52.322;16.918;2024-01-11T07:18:23;51.47;;;16.05;;
84723;SDS011;74944;52.322;16.918;2024-01-11T07:20:50;45.75;;;13.95;;
84723;SDS011;74944;52.322;16.918;2024-01-11T07:23:16;51.35;;;15.55;;
84723;SDS011;74944;52.322;16.918;2024-01-11T07:25:42;46.40;;;13.30;;
84723;SDS011;74944;52.322;16.918;2024-01-11T07:30:34;54.70;;;16.90;;
84723;SDS011;74944;52.322;16.918;2024-01-11T07:33:00;28.65;;;9.00;;
84723;SDS011;74944;52.322;16.918;2024-01-11T07:35:26;59.50;;;17.58;;
84723;SDS011;74944;52.322;16.918;2024-01-11T07:37:52;43.70;;;14.50;;
84723;SDS011;74944;52.322;16.918;2024-01-11T07:40:17;64.72;;;19.40;;
84723;SDS011;74944;52.322;16.918;2024-01-11T07:42:43;58.75;;;17.80;;
84723;SDS011;74944;52.322;16.918;2024-01-11T07:45:09;66.30;;;19.65;;
84723;SDS011;74944;52.322;16.918;2024-01-11T07:47:35;51.53;;;16.35;;
84723;SDS011;74944;52.322;16.918;2024-01-11T07:50:03;72.47;;;19.92;;
84723;SDS011;74944;52.322;16.918;2024-01-11T07:52:32;54.42;;;16.77;;
84723;SDS011;74944;52.322;16.918;2024-01-11T07:54:58;57.95;;;18.65;;
84723;SDS011;74944;52.322;16.918;2024-01-11T07:57:31;52.38;;;17.30;;
84723;SDS011;74944;52.322;16.918;2024-01-11T07:59:58;58.28;;;20.40;;
84723;SDS011;74944;52.322;16.918;2024-01-11T08:02:24;46.60;;;13.88;;
84723;SDS011;74944;52.322;16.918;2024-01-11T08:04:50;49.83;;;16.55;;
84723;SDS011;74944;52.322;16.918;2024-01-11T08:07:17;48.33;;;15.43;;
84723;SDS011;74944;52.322;16.918;2024-01-11T08:09:43;57.78;;;18.20;;
84723;SDS011;74944;52.322;16.918;2024-01-11T08:12:12;44.50;;;16.17;;
84723;SDS011;74944;52.322;16.918;2024-01-11T08:14:41;41.72;;;14.85;;
84723;SDS011;74944;52.322;16.918;2024-01-11T08:17:11;43.63;;;15.27;;
84723;SDS011;74944;52.322;16.918;2024-01-11T08:19:39;43.70;;;13.18;;
84723;SDS011;74944;52.322;16.918;2024-01-11T08:24:31;44.13;;;14.70;;
84723;SDS011;74944;52.322;16.918;2024-01-11T08:26:56;44.15;;;14.55;;
84723;SDS011;74944;52.322;16.918;2024-01-11T08:29:23;53.10;;;16.17;;
84723;SDS011;74944;52.322;16.918;2024-01-11T08:31:48;47.63;;;14.85;;
84723;SDS011;74944;52.322;16.918;2024-01-11T08:36:40;59.88;;;16.70;;
84723;SDS011;74944;52.322;16.918;2024-01-11T08:39:06;47.85;;;15.25;;
84723;SDS011;74944;52.322;16.918;2024-01-11T08:41:32;34.70;;;11.18;;
84723;SDS011;74944;52.322;16.918;2024-01-11T08:43:59;48.00;;;14.70;;
84723;SDS011;74944;52.322;16.918;2024-01-11T08:48:51;43.08;;;13.60;;
84723;SDS011;74944;52.322;16.918;2024-01-11T08:51:17;40.38;;;13.90;;
84723;SDS011;74944;52.322;16.918;2024-01-11T08:53:44;54.42;;;15.77;;
84723;SDS011;74944;52.322;16.918;2024-01-11T08:56:09;39.38;;;13.52;;
84723;SDS011;74944;52.322;16.918;2024-01-11T08:58:35;53.08;;;17.05;;
84723;SDS011;74944;52.322;16.918;2024-01-11T09:01:02;51.90;;;17.00;;
84723;SDS011;74944;52.322;16.918;2024-01-11T09:03:28;48.22;;;15.85;;
84723;SDS011;74944;52.322;16.918;2024-01-11T09:05:54;52.83;;;15.68;;
84723;SDS011;74944;52.322;16.918;2024-01-11T09:08:22;52.67;;;16.33;;
84723;SDS011;74944;52.322;16.918;2024-01-11T09:13:14;49.10;;;14.73;;
84723;SDS011;74944;52.322;16.918;2024-01-11T09:15:42;57.92;;;18.73;;
84723;SDS011;74944;52.322;16.918;2024-01-11T09:20:34;63.30;;;18.58;;
84723;SDS011;74944;52.322;16.918;2024-01-11T09:23:01;62.10;;;17.63;;
84723;SDS011;74944;52.322;16.918;2024-01-11T09:25:30;62.08;;;17.10;;
84723;SDS011;74944;52.322;16.918;2024-01-11T09:27:56;62.15;;;18.00;;
84723;SDS011;74944;52.322;16.918;2024-01-11T09:30:22;53.95;;;20.38;;
84723;SDS011;74944;52.322;16.918;2024-01-11T09:35:14;67.80;;;20.52;;
84723;SDS011;74944;52.322;16.918;2024-01-11T09:40:06;64.32;;;18.67;;
84723;SDS011;74944;52.322;16.918;2024-01-11T09:42:36;64.20;;;19.52;;
84723;SDS011;74944;52.322;16.918;2024-01-11T09:45:05;91.72;;;25.50;;
84723;SDS011;74944;52.322;16.918;2024-01-11T09:47:34;71.40;;;21.70;;
84723;SDS011;74944;52.322;16.918;2024-01-11T09:50:02;75.07;;;23.08;;
84723;SDS011;74944;52.322;16.918;2024-01-11T09:52:28;68.40;;;20.98;;
84723;SDS011;74944;52.322;16.918;2024-01-11T09:55:00;73.15;;;21.52;;
84723;SDS011;74944;52.322;16.918;2024-01-11T09:57:28;92.45;;;21.08;;
84723;SDS011;74944;52.322;16.918;2024-01-11T09:59:56;76.85;;;22.27;;
84723;SDS011;74944;52.322;16.918;2024-01-11T10:02:23;64.03;;;17.85;;
84723;SDS011;74944;52.322;16.918;2024-01-11T10:04:49;82.60;;;24.10;;
84723;SDS011;74944;52.322;16.918;2024-01-11T10:07:18;62.60;;;18.73;;
84723;SDS011;74944;52.322;16.918;2024-01-11T10:09:46;100.60;;;25.02;;
84723;SDS011;74944;52.322;16.918;2024-01-11T10:12:13;89.25;;;22.45;;
84723;SDS011;74944;52.322;16.918;2024-01-11T10:17:05;74.18;;;18.83;;
84723;SDS011;74944;52.322;16.918;2024-01-11T10:19:31;77.35;;;19.98;;
84723;SDS011;74944;52.322;16.918;2024-01-11T10:24:24;90.63;;;21.60;;
84723;SDS011;74944;52.322;16.918;2024-01-11T10:26:58;103.90;;;26.42;;
84723;SDS011;74944;52.322;16.918;2024-01-11T10:29:32;75.97;;;21.02;;
84723;SDS011;74944;52.322;16.918;2024-01-11T10:32:04;93.32;;;21.90;;
84723;SDS011;74944;52.322;16.918;2024-01-11T10:36:56;76.93;;;21.30;;
84723;SDS011;74944;52.322;16.918;2024-01-11T10:39:25;79.57;;;21.42;;
84723;SDS011;74944;52.322;16.918;2024-01-11T10:42:04;94.50;;;22.73;;
84723;SDS011;74944;52.322;16.918;2024-01-11T10:44:32;104.45;;;28.13;;
84723;SDS011;74944;52.322;16.918;2024-01-11T10:47:02;95.90;;;21.65;;
84723;SDS011;74944;52.322;16.918;2024-01-11T10:49:32;94.60;;;23.15;;
84723;SDS011;74944;52.322;16.918;2024-01-11T10:52:02;98.72;;;23.73;;
84723;SDS011;74944;52.322;16.918;2024-01-11T10:54:33;93.15;;;22.67;;
84723;SDS011;74944;52.322;16.918;2024-01-11T10:57:00;69.63;;;19.17;;
84723;SDS011;74944;52.322;16.918;2024-01-11T10:59:26;93.47;;;21.15;;
84723;SDS011;74944;52.322;16.918;2024-01-11T11:01:53;95.35;;;22.23;;
84723;SDS011;74944;52.322;16.918;2024-01-11T11:04:20;84.13;;;20.60;;
84723;SDS011;74944;52.322;16.918;2024-01-11T11:06:52;86.68;;;23.90;;
84723;SDS011;74944;52.322;16.918;2024-01-11T11:09:22;95.82;;;24.40;;
84723;SDS011;74944;52.322;16.918;2024-01-11T11:11:49;99.57;;;24.45;;
84723;SDS011;74944;52.322;16.918;2024-01-11T11:14:16;72.72;;;19.42;;
84723;SDS011;74944;52.322;16.918;2024-01-11T11:16:43;80.13;;;22.20;;
84723;SDS011;74944;52.322;16.918;2024-01-11T11:19:09;110.20;;;27.42;;
84723;SDS011;74944;52.322;16.918;2024-01-11T11:21:47;82.90;;;21.23;;
84723;SDS011;74944;52.322;16.918;2024-01-11T11:24:13;103.47;;;22.67;;
84723;SDS011;74944;52.322;16.918;2024-01-11T11:26:39;86.35;;;21.00;;
84723;SDS011;74944;52.322;16.918;2024-01-11T11:29:05;111.30;;;25.17;;
84723;SDS011;74944;52.322;16.918;2024-01-11T11:31:39;99.00;;;21.88;;
84723;SDS011;74944;52.322;16.918;2024-01-11T11:34:10;108.78;;;25.83;;
84723;SDS011;74944;52.322;16.918;2024-01-11T11:36:36;87.22;;;21.20;;
84723;SDS011;74944;52.322;16.918;2024-01-11T11:39:04;100.18;;;24.95;;
84723;SDS011;74944;52.322;16.918;2024-01-11T11:41:31;99.40;;;24.90;;
84723;SDS011;74944;52.322;16.918;2024-01-11T11:44:01;90.20;;;25.20;;
84723;SDS011;74944;52.322;16.918;2024-01-11T11:46:28;79.22;;;20.95;;
84723;SDS011;74944;52.322;16.918;2024-01-11T11:48:54;86.30;;;27.10;;
84723;SDS011;74944;52.322;16.918;2024-01-11T11:51:21;74.53;;;20.23;;
84723;SDS011;74944;52.322;16.918;2024-01-11T11:53:48;84.82;;;20.90;;
84723;SDS011;74944;52.322;16.918;2024-01-11T11:56:19;89.05;;;25.27;;
84723;SDS011;74944;52.322;16.918;2024-01-11T11:58:47;85.78;;;25.00;;
84723;SDS011;74944;52.322;16.918;2024-01-11T12:01:14;91.18;;;25.95;;
84723;SDS011;74944;52.322;16.918;2024-01-11T12:03:42;98.10;;;24.67;;
84723;SDS011;74944;52.322;16.918;2024-01-11T12:06:17;103.78;;;24.63;;
84723;SDS011;74944;52.322;16.918;2024-01-11T12:08:44;97.82;;;24.63;;
84723;SDS011;74944;52.322;16.918;2024-01-11T12:11:14;103.80;;;27.25;;
84723;SDS011;74944;52.322;16.918;2024-01-11T12:16:10;80.43;;;22.88;;
84723;SDS011;74944;52.322;16.918;2024-01-11T12:18:37;93.75;;;25.38;;
84723;SDS011;74944;52.322;16.918;2024-01-11T12:21:03;108.28;;;26.23;;
84723;SDS011;74944;52.322;16.918;2024-01-11T12:26:02;80.75;;;22.05;;
84723;SDS011;74944;52.322;16.918;2024-01-11T12:28:31;82.15;;;23.63;;
84723;SDS011;74944;52.322;16.918;2024-01-11T12:30:57;91.63;;;24.52;;
84723;SDS011;74944;52.322;16.918;2024-01-11T12:33:23;92.97;;;28.48;;
84723;SDS011;74944;52.322;16.918;2024-01-11T12:35:50;99.35;;;28.42;;
84723;SDS011;74944;52.322;16.918;2024-01-11T12:38:16;107.75;;;30.08;;
84723;SDS011;74944;52.322;16.918;2024-01-11T12:43:07;111.07;;;31.23;;
84723;SDS011;74944;52.322;16.918;2024-01-11T12:45:34;107.80;;;28.67;;
84723;SDS011;74944;52.322;16.918;2024-01-11T12:48:01;104.18;;;27.45;;
84723;SDS011;74944;52.322;16.918;2024-01-11T12:50:29;99.18;;;30.02;;
84723;SDS011;74944;52.322;16.918;2024-01-11T12:53:08;103.50;;;32.72;;
84723;SDS011;74944;52.322;16.918;2024-01-11T12:58:12;97.75;;;26.52;;
84723;SDS011;74944;52.322;16.918;2024-01-11T13:03:04;95.57;;;29.35;;
84723;SDS011;74944;52.322;16.918;2024-01-11T13:05:31;117.00;;;35.97;;
84723;SDS011;74944;52.322;16.918;2024-01-11T13:08:08;98.55;;;30.98;;
84723;SDS011;74944;52.322;16.918;2024-01-11T13:10:34;111.63;;;32.55;;
84723;SDS011;74944;52.322;16.918;2024-01-11T13:13:01;130.45;;;38.35;;
84723;SDS011;74944;52.322;16.918;2024-01-11T13:15:27;115.55;;;38.40;;
84723;SDS011;74944;52.322;16.918;2024-01-11T13:17:57;108.50;;;32.60;;
84723;SDS011;74944;52.322;16.918;2024-01-11T13:20:23;111.43;;;38.03;;
84723;SDS011;74944;52.322;16.918;2024-01-11T13:25:43;88.70;;;27.05;;
84723;SDS011;74944;52.322;16.918;2024-01-11T13:28:10;77.60;;;25.80;;
84723;SDS011;74944;52.322;16.918;2024-01-11T13:30:39;85.25;;;26.58;;
84723;SDS011;74944;52.322;16.918;2024-01-11T13:33:05;84.75;;;26.63;;
84723;SDS011;74944;52.322;16.918;2024-01-11T13:35:36;61.03;;;20.88;;
84723;SDS011;74944;52.322;16.918;2024-01-11T13:38:02;70.22;;;23.08;;
84723;SDS011;74944;52.322;16.918;2024-01-11T13:40:29;90.88;;;28.05;;
84723;SDS011;74944;52.322;16.918;2024-01-11T13:42:55;79.82;;;28.38;;
84723;SDS011;74944;52.322;16.918;2024-01-11T13:45:22;73.80;;;25.55;;
84723;SDS011;74944;52.322;16.918;2024-01-11T13:47:48;69.65;;;23.27;;
84723;SDS011;74944;52.322;16.918;2024-01-11T13:50:14;71.80;;;24.92;;
84723;SDS011;74944;52.322;16.918;2024-01-11T13:52:40;90.68;;;30.95;;
84723;SDS011;74944;52.322;16.918;2024-01-11T13:55:09;101.47;;;37.35;;
84723;SDS011;74944;52.322;16.918;2024-01-11T13:57:37;105.50;;;37.28;;
84723;SDS011;74944;52.322;16.918;2024-01-11T14:00:04;112.75;;;41.75;;
84723;SDS011;74944;52.322;16.918;2024-01-11T14:02:30;78.53;;;27.55;;
84723;SDS011;74944;52.322;16.918;2024-01-11T14:04:57;89.43;;;33.08;;
84723;SDS011;74944;52.322;16.918;2024-01-11T14:07:23;63.72;;;24.50;;
84723;SDS011;74944;52.322;16.918;2024-01-11T14:09:50;58.55;;;19.70;;
84723;SDS011;74944;52.322;16.918;2024-01-11T14:12:16;50.72;;;16.90;;
84723;SDS011;74944;52.322;16.918;2024-01-11T14:14:42;55.25;;;16.70;;
84723;SDS011;74944;52.322;16.918;2024-01-11T14:19:35;52.97;;;14.95;;
84723;SDS011;74944;52.322;16.918;2024-01-11T14:22:01;54.63;;;17.13;;
84723;SDS011;74944;52.322;16.918;2024-01-11T14:24:27;54.72;;;18.42;;
84723;SDS011;74944;52.322;16.918;2024-01-11T14:26:53;45.55;;;13.73;;
84723;SDS011;74944;52.322;16.918;2024-01-11T14:29:19;46.20;;;16.25;;
84723;SDS011;74944;52.322;16.918;2024-01-11T14:34:11;43.63;;;16.55;;
84723;SDS011;74944;52.322;16.918;2024-01-11T14:39:03;43.40;;;15.35;;
84723;SDS011;74944;52.322;16.918;2024-01-11T14:41:30;44.65;;;15.45;;
84723;SDS011;74944;52.322;16.918;2024-01-11T14:43:57;50.45;;;16.33;;
84723;SDS011;74944;52.322;16.918;2024-01-11T14:46:24;95.45;;;31.95;;
84723;SDS011;74944;52.322;16.918;2024-01-11T14:48:50;112.05;;;36.20;;
84723;SDS011;74944;52.322;16.918;2024-01-11T14:51:15;123.13;;;45.00;;
84723;SDS011;74944;52.322;16.918;2024-01-11T14:53:41;133.82;;;48.47;;
84723;SDS011;74944;52.322;16.918;2024-01-11T14:58:33;123.50;;;40.60;;
84723;SDS011;74944;52.322;16.918;2024-01-11T15:00:58;117.20;;;44.63;;
84723;SDS011;74944;52.322;16.918;2024-01-11T15:03:26;102.15;;;38.15;;
84723;SDS011;74944;52.322;16.918;2024-01-11T15:05:52;77.65;;;31.77;;
84723;SDS011;74944;52.322;16.918;2024-01-11T15:08:19;84.72;;;34.05;;
84723;SDS011;74944;52.322;16.918;2024-01-11T15:10:45;85.07;;;30.40;;
84723;SDS011;74944;52.322;16.918;2024-01-11T15:13:11;86.55;;;31.80;;
84723;SDS011;74944;52.322;16.918;2024-01-11T15:15:37;91.47;;;36.88;;